FAHT weather

Hoedspruit Airport
Hoedspruit, Limpopo, South Africa

Public forecast

Using degrees Celsius for public forecast. Weather courtesy of forecast.io.

Closest aviation weather report (METAR) to Hoedspruit Airport

Closest report is Hoedspruit Air Force Base Airport, 5.5 nm (10.2 km) E. Retrieved 2019/10/15 21:00 UTC (6 minutes ago):

FAHS 152100Z AUTO 17011G21KT //// // ////// 21/16 Q1026

Closest aviation forecast (TAF) to Hoedspruit Airport

Forecast is more than 12 hours old.

Closest forecast is Hoedspruit Air Force Base Airport, 5.5 nm (10.2 km) E. Retrieved 2017/05/23 04:01 UTC (2 years ago):

TAF FAHS 230300Z 2304/2315 VRB02KT CAVOK TX29/2312ZTN12/2304Z